sensor_id;sensor_type;location;lat;lon;timestamp;P1;durP1;ratioP1;P2;durP2;ratioP2
5638;SDS011;2841;44.526;11.360;2023-05-07T00:02:06;19.77;;;12.30;;
5638;SDS011;2841;44.526;11.360;2023-05-07T00:04:35;18.83;;;12.10;;
5638;SDS011;2841;44.526;11.360;2023-05-07T00:07:04;21.07;;;11.03;;
5638;SDS011;2841;44.526;11.360;2023-05-07T00:09:31;19.90;;;12.47;;
5638;SDS011;2841;44.526;11.360;2023-05-07T00:11:58;18.50;;;11.70;;
5638;SDS011;2841;44.526;11.360;2023-05-07T00:14:25;24.70;;;13.13;;
5638;SDS011;2841;44.526;11.360;2023-05-07T00:16:53;17.37;;;11.97;;
5638;SDS011;2841;44.526;11.360;2023-05-07T00:19:20;24.47;;;12.70;;
5638;SDS011;2841;44.526;11.360;2023-05-07T00:21:48;18.10;;;12.07;;
5638;SDS011;2841;44.526;11.360;2023-05-07T00:24:18;20.10;;;11.23;;
5638;SDS011;2841;44.526;11.360;2023-05-07T00:26:45;19.20;;;12.67;;
5638;SDS011;2841;44.526;11.360;2023-05-07T00:29:12;18.83;;;11.87;;
5638;SDS011;2841;44.526;11.360;2023-05-07T00:31:40;20.67;;;13.33;;
5638;SDS011;2841;44.526;11.360;2023-05-07T00:34:07;17.37;;;11.63;;
5638;SDS011;2841;44.526;11.360;2023-05-07T00:36:34;18.30;;;11.03;;
5638;SDS011;2841;44.526;11.360;2023-05-07T00:39:02;26.93;;;12.97;;
5638;SDS011;2841;44.526;11.360;2023-05-07T00:41:29;26.07;;;12.67;;
5638;SDS011;2841;44.526;11.360;2023-05-07T00:43:57;20.60;;;12.70;;
5638;SDS011;2841;44.526;11.360;2023-05-07T00:46:24;19.00;;;11.67;;
5638;SDS011;2841;44.526;11.360;2023-05-07T00:48:51;17.57;;;10.33;;
5638;SDS011;2841;44.526;11.360;2023-05-07T00:51:19;18.10;;;11.33;;
5638;SDS011;2841;44.526;11.360;2023-05-07T00:53:47;19.13;;;11.10;;
5638;SDS011;2841;44.526;11.360;2023-05-07T00:56:16;23.67;;;11.80;;
5638;SDS011;2841;44.526;11.360;2023-05-07T00:58:43;21.10;;;12.67;;
5638;SDS011;2841;44.526;11.360;2023-05-07T01:01:11;23.50;;;12.57;;
5638;SDS011;2841;44.526;11.360;2023-05-07T01:03:38;17.97;;;10.40;;
5638;SDS011;2841;44.526;11.360;2023-05-07T01:06:05;20.37;;;10.37;;
5638;SDS011;2841;44.526;11.360;2023-05-07T01:08:33;18.23;;;11.50;;
5638;SDS011;2841;44.526;11.360;2023-05-07T01:11:01;20.80;;;12.07;;
5638;SDS011;2841;44.526;11.360;2023-05-07T01:13:30;24.67;;;11.93;;
5638;SDS011;2841;44.526;11.360;2023-05-07T01:15:58;14.83;;;10.40;;
5638;SDS011;2841;44.526;11.360;2023-05-07T01:18:26;15.87;;;10.80;;
5638;SDS011;2841;44.526;11.360;2023-05-07T01:20:55;18.47;;;12.13;;
5638;SDS011;2841;44.526;11.360;2023-05-07T01:23:25;22.47;;;11.63;;
5638;SDS011;2841;44.526;11.360;2023-05-07T01:25:54;22.20;;;11.90;;
5638;SDS011;2841;44.526;11.360;2023-05-07T01:28:21;20.20;;;12.30;;
5638;SDS011;2841;44.526;11.360;2023-05-07T01:30:49;16.03;;;10.13;;
5638;SDS011;2841;44.526;11.360;2023-05-07T01:33:21;16.53;;;11.50;;
5638;SDS011;2841;44.526;11.360;2023-05-07T01:35:51;18.40;;;12.03;;
5638;SDS011;2841;44.526;11.360;2023-05-07T01:38:20;16.27;;;11.63;;
5638;SDS011;2841;44.526;11.360;2023-05-07T01:40:50;22.40;;;11.97;;
5638;SDS011;2841;44.526;11.360;2023-05-07T01:43:18;20.23;;;12.10;;
5638;SDS011;2841;44.526;11.360;2023-05-07T01:45:46;18.47;;;10.50;;
5638;SDS011;2841;44.526;11.360;2023-05-07T01:48:15;29.93;;;12.27;;
5638;SDS011;2841;44.526;11.360;2023-05-07T01:50:42;16.60;;;11.60;;
5638;SDS011;2841;44.526;11.360;2023-05-07T01:53:10;15.97;;;10.37;;
5638;SDS011;2841;44.526;11.360;2023-05-07T01:55:37;19.83;;;11.60;;
5638;SDS011;2841;44.526;11.360;2023-05-07T01:58:06;16.10;;;10.53;;
5638;SDS011;2841;44.526;11.360;2023-05-07T02:00:33;20.13;;;10.80;;
5638;SDS011;2841;44.526;11.360;2023-05-07T02:03:01;18.03;;;11.60;;
5638;SDS011;2841;44.526;11.360;2023-05-07T02:05:28;16.70;;;11.13;;
5638;SDS011;2841;44.526;11.360;2023-05-07T02:07:55;16.50;;;10.23;;
5638;SDS011;2841;44.526;11.360;2023-05-07T02:10:22;18.57;;;10.83;;
5638;SDS011;2841;44.526;11.360;2023-05-07T02:12:49;17.40;;;11.17;;
5638;SDS011;2841;44.526;11.360;2023-05-07T02:15:18;20.43;;;11.67;;
5638;SDS011;2841;44.526;11.360;2023-05-07T02:17:57;20.90;;;10.53;;
5638;SDS011;2841;44.526;11.360;2023-05-07T02:20:26;19.40;;;11.13;;
5638;SDS011;2841;44.526;11.360;2023-05-07T02:22:53;19.73;;;11.77;;
5638;SDS011;2841;44.526;11.360;2023-05-07T02:25:20;28.50;;;11.30;;
5638;SDS011;2841;44.526;11.360;2023-05-07T02:27:48;23.03;;;12.67;;
5638;SDS011;2841;44.526;11.360;2023-05-07T02:30:15;18.20;;;11.93;;
5638;SDS011;2841;44.526;11.360;2023-05-07T02:32:43;19.20;;;10.70;;
5638;SDS011;2841;44.526;11.360;2023-05-07T02:35:10;16.10;;;10.10;;
5638;SDS011;2841;44.526;11.360;2023-05-07T02:37:38;21.03;;;11.10;;
5638;SDS011;2841;44.526;11.360;2023-05-07T02:40:05;15.10;;;10.37;;
5638;SDS011;2841;44.526;11.360;2023-05-07T02:42:33;20.67;;;10.83;;
5638;SDS011;2841;44.526;11.360;2023-05-07T02:45:01;17.27;;;10.60;;
5638;SDS011;2841;44.526;11.360;2023-05-07T02:47:28;16.87;;;10.37;;
5638;SDS011;2841;44.526;11.360;2023-05-07T02:49:56;14.10;;;10.30;;
5638;SDS011;2841;44.526;11.360;2023-05-07T02:52:24;17.33;;;10.03;;
5638;SDS011;2841;44.526;11.360;2023-05-07T02:54:51;16.57;;;9.20;;
5638;SDS011;2841;44.526;11.360;2023-05-07T02:57:18;18.87;;;9.77;;
5638;SDS011;2841;44.526;11.360;2023-05-07T02:59:45;17.93;;;8.70;;
5638;SDS011;2841;44.526;11.360;2023-05-07T03:02:13;15.63;;;7.70;;
5638;SDS011;2841;44.526;11.360;2023-05-07T03:04:40;13.40;;;8.27;;
5638;SDS011;2841;44.526;11.360;2023-05-07T03:07:08;15.37;;;9.40;;
5638;SDS011;2841;44.526;11.360;2023-05-07T03:09:35;12.93;;;8.37;;
5638;SDS011;2841;44.526;11.360;2023-05-07T03:12:03;9.30;;;7.37;;
5638;SDS011;2841;44.526;11.360;2023-05-07T03:14:30;9.97;;;7.17;;
5638;SDS011;2841;44.526;11.360;2023-05-07T03:16:57;11.60;;;7.43;;
5638;SDS011;2841;44.526;11.360;2023-05-07T03:19:24;10.20;;;6.30;;
5638;SDS011;2841;44.526;11.360;2023-05-07T03:21:52;13.90;;;6.73;;
5638;SDS011;2841;44.526;11.360;2023-05-07T03:24:20;14.63;;;6.97;;
5638;SDS011;2841;44.526;11.360;2023-05-07T03:26:48;11.10;;;7.10;;
5638;SDS011;2841;44.526;11.360;2023-05-07T03:29:15;12.00;;;7.77;;
5638;SDS011;2841;44.526;11.360;2023-05-07T03:31:42;11.30;;;7.10;;
5638;SDS011;2841;44.526;11.360;2023-05-07T03:34:10;9.80;;;5.87;;
5638;SDS011;2841;44.526;11.360;2023-05-07T03:36:37;9.53;;;6.07;;
5638;SDS011;2841;44.526;11.360;2023-05-07T03:39:04;8.97;;;5.23;;
5638;SDS011;2841;44.526;11.360;2023-05-07T03:41:33;10.47;;;5.73;;
5638;SDS011;2841;44.526;11.360;2023-05-07T03:44:00;13.70;;;6.50;;
5638;SDS011;2841;44.526;11.360;2023-05-07T03:46:27;8.87;;;4.73;;
5638;SDS011;2841;44.526;11.360;2023-05-07T03:48:55;13.63;;;6.23;;
5638;SDS011;2841;44.526;11.360;2023-05-07T03:51:22;6.27;;;4.53;;
5638;SDS011;2841;44.526;11.360;2023-05-07T03:53:49;11.63;;;6.63;;
5638;SDS011;2841;44.526;11.360;2023-05-07T03:56:18;13.20;;;8.30;;
5638;SDS011;2841;44.526;11.360;2023-05-07T03:58:47;14.97;;;8.43;;
5638;SDS011;2841;44.526;11.360;2023-05-07T04:01:14;23.73;;;9.50;;
5638;SDS011;2841;44.526;11.360;2023-05-07T04:03:41;29.67;;;11.57;;
5638;SDS011;2841;44.526;11.360;2023-05-07T04:06:08;14.87;;;10.00;;
5638;SDS011;2841;44.526;11.360;2023-05-07T04:08:35;15.37;;;9.60;;
5638;SDS011;2841;44.526;11.360;2023-05-07T04:11:03;14.33;;;9.87;;
5638;SDS011;2841;44.526;11.360;2023-05-07T04:13:30;16.10;;;10.60;;
5638;SDS011;2841;44.526;11.360;2023-05-07T04:16:00;17.33;;;11.00;;
5638;SDS011;2841;44.526;11.360;2023-05-07T04:18:28;19.27;;;10.30;;
5638;SDS011;2841;44.526;11.360;2023-05-07T04:20:55;17.40;;;10.43;;
5638;SDS011;2841;44.526;11.360;2023-05-07T04:23:22;20.80;;;9.63;;
5638;SDS011;2841;44.526;11.360;2023-05-07T04:25:50;16.30;;;10.57;;
5638;SDS011;2841;44.526;11.360;2023-05-07T04:28:17;13.10;;;8.70;;
5638;SDS011;2841;44.526;11.360;2023-05-07T04:30:44;15.80;;;8.87;;
5638;SDS011;2841;44.526;11.360;2023-05-07T04:33:14;15.50;;;8.73;;
5638;SDS011;2841;44.526;11.360;2023-05-07T04:35:42;13.40;;;8.23;;
5638;SDS011;2841;44.526;11.360;2023-05-07T04:38:09;28.87;;;10.33;;
5638;SDS011;2841;44.526;11.360;2023-05-07T04:40:36;21.30;;;8.10;;
5638;SDS011;2841;44.526;11.360;2023-05-07T04:43:04;11.93;;;7.17;;
5638;SDS011;2841;44.526;11.360;2023-05-07T04:45:32;15.13;;;8.83;;
5638;SDS011;2841;44.526;11.360;2023-05-07T04:47:59;20.60;;;9.10;;
5638;SDS011;2841;44.526;11.360;2023-05-07T04:50:28;16.10;;;7.53;;
5638;SDS011;2841;44.526;11.360;2023-05-07T04:52:55;12.77;;;7.87;;
5638;SDS011;2841;44.526;11.360;2023-05-07T04:55:23;8.87;;;6.23;;
5638;SDS011;2841;44.526;11.360;2023-05-07T04:57:50;13.77;;;6.77;;
5638;SDS011;2841;44.526;11.360;2023-05-07T05:00:18;12.40;;;6.90;;
5638;SDS011;2841;44.526;11.360;2023-05-07T05:02:45;12.13;;;4.63;;
5638;SDS011;2841;44.526;11.360;2023-05-07T05:05:13;7.57;;;4.60;;
5638;SDS011;2841;44.526;11.360;2023-05-07T05:07:41;8.63;;;4.30;;
5638;SDS011;2841;44.526;11.360;2023-05-07T05:10:09;16.90;;;3.90;;
5638;SDS011;2841;44.526;11.360;2023-05-07T05:12:36;6.17;;;3.47;;
5638;SDS011;2841;44.526;11.360;2023-05-07T05:15:04;5.87;;;3.70;;
5638;SDS011;2841;44.526;11.360;2023-05-07T05:17:32;4.70;;;2.73;;
5638;SDS011;2841;44.526;11.360;2023-05-07T05:20:00;5.73;;;3.70;;
5638;SDS011;2841;44.526;11.360;2023-05-07T05:22:27;10.03;;;3.90;;
5638;SDS011;2841;44.526;11.360;2023-05-07T05:24:57;9.43;;;4.00;;
5638;SDS011;2841;44.526;11.360;2023-05-07T05:27:25;14.30;;;3.93;;
5638;SDS011;2841;44.526;11.360;2023-05-07T05:29:52;6.50;;;3.77;;
5638;SDS011;2841;44.526;11.360;2023-05-07T05:32:20;11.23;;;7.00;;
5638;SDS011;2841;44.526;11.360;2023-05-07T05:34:47;9.43;;;5.20;;
5638;SDS011;2841;44.526;11.360;2023-05-07T05:37:14;6.47;;;4.50;;
5638;SDS011;2841;44.526;11.360;2023-05-07T05:39:42;9.50;;;5.77;;
5638;SDS011;2841;44.526;11.360;2023-05-07T05:42:10;11.50;;;6.40;;
5638;SDS011;2841;44.526;11.360;2023-05-07T05:44:38;9.20;;;4.60;;
5638;SDS011;2841;44.526;11.360;2023-05-07T05:47:05;5.17;;;3.90;;
5638;SDS011;2841;44.526;11.360;2023-05-07T05:49:32;6.33;;;3.93;;
5638;SDS011;2841;44.526;11.360;2023-05-07T05:51:59;10.43;;;5.10;;
5638;SDS011;2841;44.526;11.360;2023-05-07T05:54:26;9.40;;;6.07;;
5638;SDS011;2841;44.526;11.360;2023-05-07T05:56:53;10.03;;;5.53;;
5638;SDS011;2841;44.526;11.360;2023-05-07T05:59:22;11.30;;;7.33;;
5638;SDS011;2841;44.526;11.360;2023-05-07T06:01:49;15.67;;;8.20;;
5638;SDS011;2841;44.526;11.360;2023-05-07T06:04:17;13.63;;;8.23;;
5638;SDS011;2841;44.526;11.360;2023-05-07T06:06:44;17.13;;;10.30;;
5638;SDS011;2841;44.526;11.360;2023-05-07T06:09:12;15.43;;;8.20;;
5638;SDS011;2841;44.526;11.360;2023-05-07T06:11:39;13.43;;;8.50;;
5638;SDS011;2841;44.526;11.360;2023-05-07T06:14:06;17.77;;;10.10;;
5638;SDS011;2841;44.526;11.360;2023-05-07T06:16:35;12.83;;;8.80;;
5638;SDS011;2841;44.526;11.360;2023-05-07T06:19:03;13.53;;;8.90;;
5638;SDS011;2841;44.526;11.360;2023-05-07T06:21:30;14.33;;;8.97;;
5638;SDS011;2841;44.526;11.360;2023-05-07T06:23:57;17.70;;;8.40;;
5638;SDS011;2841;44.526;11.360;2023-05-07T06:26:24;11.40;;;7.60;;
5638;SDS011;2841;44.526;11.360;2023-05-07T06:28:51;13.73;;;8.63;;
5638;SDS011;2841;44.526;11.360;2023-05-07T06:31:19;10.90;;;7.40;;
5638;SDS011;2841;44.526;11.360;2023-05-07T06:33:48;18.93;;;8.83;;
5638;SDS011;2841;44.526;11.360;2023-05-07T06:36:15;35.83;;;9.97;;
5638;SDS011;2841;44.526;11.360;2023-05-07T06:38:43;13.30;;;9.10;;
5638;SDS011;2841;44.526;11.360;2023-05-07T06:41:10;14.63;;;8.40;;
5638;SDS011;2841;44.526;11.360;2023-05-07T06:43:37;11.77;;;8.10;;
5638;SDS011;2841;44.526;11.360;2023-05-07T06:46:04;15.57;;;10.90;;
5638;SDS011;2841;44.526;11.360;2023-05-07T06:48:31;15.23;;;9.37;;
5638;SDS011;2841;44.526;11.360;2023-05-07T06:51:00;13.83;;;9.47;;
5638;SDS011;2841;44.526;11.360;2023-05-07T06:53:27;13.63;;;9.03;;
5638;SDS011;2841;44.526;11.360;2023-05-07T06:55:55;19.13;;;9.53;;
5638;SDS011;2841;44.526;11.360;2023-05-07T06:58:22;17.27;;;10.40;;
5638;SDS011;2841;44.526;11.360;2023-05-07T07:00:50;17.00;;;9.80;;
5638;SDS011;2841;44.526;11.360;2023-05-07T07:03:17;18.63;;;9.80;;
5638;SDS011;2841;44.526;11.360;2023-05-07T07:05:44;18.60;;;10.93;;
5638;SDS011;2841;44.526;11.360;2023-05-07T07:08:13;17.60;;;10.00;;
5638;SDS011;2841;44.526;11.360;2023-05-07T07:10:42;15.97;;;10.20;;
5638;SDS011;2841;44.526;11.360;2023-05-07T07:13:09;18.73;;;10.40;;
5638;SDS011;2841;44.526;11.360;2023-05-07T07:15:37;21.27;;;11.67;;
5638;SDS011;2841;44.526;11.360;2023-05-07T07:18:04;20.53;;;13.30;;
5638;SDS011;2841;44.526;11.360;2023-05-07T07:20:32;17.57;;;11.60;;
5638;SDS011;2841;44.526;11.360;2023-05-07T07:22:59;16.50;;;11.40;;
5638;SDS011;2841;44.526;11.360;2023-05-07T07:25:29;25.60;;;12.87;;
5638;SDS011;2841;44.526;11.360;2023-05-07T07:27:56;16.83;;;12.17;;
5638;SDS011;2841;44.526;11.360;2023-05-07T07:30:23;25.60;;;12.20;;
5638;SDS011;2841;44.526;11.360;2023-05-07T07:32:52;21.40;;;11.57;;
5638;SDS011;2841;44.526;11.360;2023-05-07T07:35:20;16.57;;;11.20;;
5638;SDS011;2841;44.526;11.360;2023-05-07T07:37:48;13.90;;;11.33;;
5638;SDS011;2841;44.526;11.360;2023-05-07T07:40:16;16.00;;;11.37;;
5638;SDS011;2841;44.526;11.360;2023-05-07T07:42:44;15.90;;;10.60;;
5638;SDS011;2841;44.526;11.360;2023-05-07T07:45:12;13.97;;;9.97;;
5638;SDS011;2841;44.526;11.360;2023-05-07T07:47:39;16.53;;;11.60;;
5638;SDS011;2841;44.526;11.360;2023-05-07T07:50:07;15.50;;;10.63;;
5638;SDS011;2841;44.526;11.360;2023-05-07T07:52:35;18.23;;;11.07;;
5638;SDS011;2841;44.526;11.360;2023-05-07T07:55:03;14.40;;;10.43;;
5638;SDS011;2841;44.526;11.360;2023-05-07T07:57:32;16.10;;;10.00;;
5638;SDS011;2841;44.526;11.360;2023-05-07T08:00:01;16.77;;;10.97;;
5638;SDS011;2841;44.526;11.360;2023-05-07T08:02:28;15.17;;;9.20;;
5638;SDS011;2841;44.526;11.360;2023-05-07T08:04:55;20.83;;;10.70;;
5638;SDS011;2841;44.526;11.360;2023-05-07T08:07:22;16.30;;;8.67;;
5638;SDS011;2841;44.526;11.360;2023-05-07T08:09:50;13.13;;;9.20;;
5638;SDS011;2841;44.526;11.360;2023-05-07T08:12:17;12.73;;;8.30;;
5638;SDS011;2841;44.526;11.360;2023-05-07T08:14:44;18.53;;;8.70;;
5638;SDS011;2841;44.526;11.360;2023-05-07T08:17:12;21.07;;;10.50;;
5638;SDS011;2841;44.526;11.360;2023-05-07T08:19:41;12.40;;;8.73;;
5638;SDS011;2841;44.526;11.360;2023-05-07T08:22:08;14.03;;;8.73;;
5638;SDS011;2841;44.526;11.360;2023-05-07T08:24:35;14.20;;;8.90;;
5638;SDS011;2841;44.526;11.360;2023-05-07T08:27:03;12.23;;;7.67;;
5638;SDS011;2841;44.526;11.360;2023-05-07T08:29:30;13.40;;;9.23;;
5638;SDS011;2841;44.526;11.360;2023-05-07T08:31:57;14.17;;;8.90;;
5638;SDS011;2841;44.526;11.360;2023-05-07T08:34:26;12.63;;;8.70;;
5638;SDS011;2841;44.526;11.360;2023-05-07T08:36:53;13.03;;;8.80;;
5638;SDS011;2841;44.526;11.360;2023-05-07T08:39:21;13.23;;;8.77;;
5638;SDS011;2841;44.526;11.360;2023-05-07T08:41:49;21.93;;;8.70;;
5638;SDS011;2841;44.526;11.360;2023-05-07T08:44:20;12.30;;;8.80;;
5638;SDS011;2841;44.526;11.360;2023-05-07T08:46:52;15.90;;;9.47;;
5638;SDS011;2841;44.526;11.360;2023-05-07T08:49:22;15.27;;;9.33;;
5638;SDS011;2841;44.526;11.360;2023-05-07T08:51:51;18.20;;;7.83;;
5638;SDS011;2841;44.526;11.360;2023-05-07T08:54:18;28.13;;;9.60;;
5638;SDS011;2841;44.526;11.360;2023-05-07T08:56:46;12.63;;;9.03;;
5638;SDS011;2841;44.526;11.360;2023-05-07T08:59:14;15.77;;;9.83;;
5638;SDS011;2841;44.526;11.360;2023-05-07T09:01:41;14.43;;;9.20;;
5638;SDS011;2841;44.526;11.360;2023-05-07T09:04:08;14.97;;;9.17;;
5638;SDS011;2841;44.526;11.360;2023-05-07T09:06:35;19.70;;;9.17;;
5638;SDS011;2841;44.526;11.360;2023-05-07T09:09:06;12.87;;;9.47;;
5638;SDS011;2841;44.526;11.360;2023-05-07T09:11:34;12.10;;;8.50;;
5638;SDS011;2841;44.526;11.360;2023-05-07T09:14:01;12.37;;;9.07;;
5638;SDS011;2841;44.526;11.360;2023-05-07T09:16:29;17.47;;;8.13;;
5638;SDS011;2841;44.526;11.360;2023-05-07T09:18:57;11.37;;;8.87;;
5638;SDS011;2841;44.526;11.360;2023-05-07T09:21:25;12.17;;;8.80;;
5638;SDS011;2841;44.526;11.360;2023-05-07T09:23:52;12.73;;;9.20;;
5638;SDS011;2841;44.526;11.360;2023-05-07T09:26:22;32.00;;;8.93;;
5638;SDS011;2841;44.526;11.360;2023-05-07T09:28:49;11.00;;;7.20;;
5638;SDS011;2841;44.526;11.360;2023-05-07T09:31:17;10.33;;;8.03;;
5638;SDS011;2841;44.526;11.360;2023-05-07T09:33:44;13.53;;;8.00;;
5638;SDS011;2841;44.526;11.360;2023-05-07T09:36:11;10.13;;;7.40;;
5638;SDS011;2841;44.526;11.360;2023-05-07T09:38:38;12.13;;;6.93;;
5638;SDS011;2841;44.526;11.360;2023-05-07T09:41:07;12.50;;;6.70;;
5638;SDS011;2841;44.526;11.360;2023-05-07T09:43:36;9.93;;;7.77;;
5638;SDS011;2841;44.526;11.360;2023-05-07T09:46:11;10.87;;;7.97;;
5638;SDS011;2841;44.526;11.360;2023-05-07T09:48:41;10.90;;;7.50;;
5638;SDS011;2841;44.526;11.360;2023-05-07T09:51:11;16.53;;;7.67;;
5638;SDS011;2841;44.526;11.360;2023-05-07T09:53:44;17.20;;;7.53;;
5638;SDS011;2841;44.526;11.360;2023-05-07T09:56:13;10.77;;;6.13;;
5638;SDS011;2841;44.526;11.360;2023-05-07T09:58:43;10.20;;;6.97;;
5638;SDS011;2841;44.526;11.360;2023-05-07T10:01:11;11.57;;;7.77;;
5638;SDS011;2841;44.526;11.360;2023-05-07T10:03:39;12.20;;;7.57;;
5638;SDS011;2841;44.526;11.360;2023-05-07T10:06:08;14.60;;;9.03;;
5638;SDS011;2841;44.526;11.360;2023-05-07T10:08:36;14.47;;;7.90;;
5638;SDS011;2841;44.526;11.360;2023-05-07T10:11:04;9.97;;;7.53;;
5638;SDS011;2841;44.526;11.360;2023-05-07T10:13:32;11.00;;;9.13;;
5638;SDS011;2841;44.526;11.360;2023-05-07T10:16:04;12.53;;;7.77;;
5638;SDS011;2841;44.526;11.360;2023-05-07T10:18:32;12.63;;;8.00;;
5638;SDS011;2841;44.526;11.360;2023-05-07T10:21:02;13.97;;;8.20;;
5638;SDS011;2841;44.526;11.360;2023-05-07T10:23:34;11.40;;;7.47;;
5638;SDS011;2841;44.526;11.360;2023-05-07T10:26:02;10.13;;;7.50;;
5638;SDS011;2841;44.526;11.360;2023-05-07T10:28:32;11.00;;;7.80;;
5638;SDS011;2841;44.526;11.360;2023-05-07T10:31:07;9.30;;;7.30;;
5638;SDS011;2841;44.526;11.360;2023-05-07T10:33:44;8.97;;;6.53;;
5638;SDS011;2841;44.526;11.360;2023-05-07T10:36:13;12.90;;;7.17;;
5638;SDS011;2841;44.526;11.360;2023-05-07T10:38:40;13.17;;;7.13;;
5638;SDS011;2841;44.526;11.360;2023-05-07T10:41:08;11.37;;;7.80;;
5638;SDS011;2841;44.526;11.360;2023-05-07T10:43:39;8.00;;;6.23;;
5638;SDS011;2841;44.526;11.360;2023-05-07T10:46:15;8.40;;;5.83;;
5638;SDS011;2841;44.526;11.360;2023-05-07T10:51:37;14.13;;;6.67;;
5638;SDS011;2841;44.526;11.360;2023-05-07T10:54:21;7.43;;;5.30;;
5638;SDS011;2841;44.526;11.360;2023-05-07T10:56:49;7.23;;;5.40;;
5638;SDS011;2841;44.526;11.360;2023-05-07T10:59:36;6.73;;;4.80;;
5638;SDS011;2841;44.526;11.360;2023-05-07T11:02:10;8.93;;;5.37;;
5638;SDS011;2841;44.526;11.360;2023-05-07T11:04:39;15.77;;;6.07;;
5638;SDS011;2841;44.526;11.360;2023-05-07T11:09:54;4.93;;;4.30;;
5638;SDS011;2841;44.526;11.360;2023-05-07T11:15:40;9.13;;;5.50;;
5638;SDS011;2841;44.526;11.360;2023-05-07T11:18:10;8.83;;;6.03;;
5638;SDS011;2841;44.526;11.360;2023-05-07T11:20:46;10.27;;;5.33;;
5638;SDS011;2841;44.526;11.360;2023-05-07T11:26:25;10.50;;;7.20;;
5638;SDS011;2841;44.526;11.360;2023-05-07T11:28:57;10.50;;;6.90;;
5638;SDS011;2841;44.526;11.360;2023-05-07T11:31:26;9.20;;;6.47;;
5638;SDS011;2841;44.526;11.360;2023-05-07T11:33:56;11.07;;;6.90;;
5638;SDS011;2841;44.526;11.360;2023-05-07T11:36:24;10.00;;;5.67;;
5638;SDS011;2841;44.526;11.360;2023-05-07T11:38:52;5.90;;;4.87;;
5638;SDS011;2841;44.526;11.360;2023-05-07T11:41:20;13.17;;;4.87;;
5638;SDS011;2841;44.526;11.360;2023-05-07T11:43:54;7.33;;;5.33;;
5638;SDS011;2841;44.526;11.360;2023-05-07T11:46:26;7.83;;;4.97;;
5638;SDS011;2841;44.526;11.360;2023-05-07T11:48:53;9.43;;;5.40;;
5638;SDS011;2841;44.526;11.360;2023-05-07T11:51:23;9.37;;;5.83;;
5638;SDS011;2841;44.526;11.360;2023-05-07T11:53:52;8.77;;;6.80;;
5638;SDS011;2841;44.526;11.360;2023-05-07T11:56:20;7.60;;;5.73;;
5638;SDS011;2841;44.526;11.360;2023-05-07T11:58:47;7.37;;;5.50;;
5638;SDS011;2841;44.526;11.360;2023-05-07T12:01:15;6.40;;;4.97;;
5638;SDS011;2841;44.526;11.360;2023-05-07T12:03:45;7.40;;;4.37;;
5638;SDS011;2841;44.526;11.360;2023-05-07T12:06:15;9.23;;;4.10;;
5638;SDS011;2841;44.526;11.360;2023-05-07T12:08:43;6.30;;;3.53;;
5638;SDS011;2841;44.526;11.360;2023-05-07T12:11:13;5.70;;;3.87;;
5638;SDS011;2841;44.526;11.360;2023-05-07T12:13:43;8.70;;;3.80;;
5638;SDS011;2841;44.526;11.360;2023-05-07T12:16:10;4.70;;;3.60;;
5638;SDS011;2841;44.526;11.360;2023-05-07T12:18:38;4.33;;;3.30;;
5638;SDS011;2841;44.526;11.360;2023-05-07T12:21:06;8.77;;;4.80;;
5638;SDS011;2841;44.526;11.360;2023-05-07T12:23:36;6.77;;;4.00;;
5638;SDS011;2841;44.526;11.360;2023-05-07T12:26:04;5.53;;;3.60;;
5638;SDS011;2841;44.526;11.360;2023-05-07T12:28:36;5.83;;;4.40;;
5638;SDS011;2841;44.526;11.360;2023-05-07T12:31:04;4.50;;;3.23;;
5638;SDS011;2841;44.526;11.360;2023-05-07T12:33:31;5.00;;;3.87;;
5638;SDS011;2841;44.526;11.360;2023-05-07T12:36:02;6.33;;;4.20;;
5638;SDS011;2841;44.526;11.360;2023-05-07T12:38:34;3.97;;;2.93;;
5638;SDS011;2841;44.526;11.360;2023-05-07T12:41:04;5.60;;;3.50;;
5638;SDS011;2841;44.526;11.360;2023-05-07T12:43:32;12.17;;;4.40;;
5638;SDS011;2841;44.526;11.360;2023-05-07T12:46:00;4.70;;;3.47;;
5638;SDS011;2841;44.526;11.360;2023-05-07T12:48:29;5.80;;;3.57;;
5638;SDS011;2841;44.526;11.360;2023-05-07T12:51:00;4.13;;;3.20;;
5638;SDS011;2841;44.526;11.360;2023-05-07T12:53:27;5.57;;;3.40;;
5638;SDS011;2841;44.526;11.360;2023-05-07T12:55:58;6.37;;;4.13;;
5638;SDS011;2841;44.526;11.360;2023-05-07T12:58:26;9.00;;;4.27;;
5638;SDS011;2841;44.526;11.360;2023-05-07T13:00:54;6.20;;;4.87;;
5638;SDS011;2841;44.526;11.360;2023-05-07T13:03:27;6.70;;;4.20;;
5638;SDS011;2841;44.526;11.360;2023-05-07T13:05:55;5.00;;;3.80;;
5638;SDS011;2841;44.526;11.360;2023-05-07T13:08:25;11.03;;;3.63;;
5638;SDS011;2841;44.526;11.360;2023-05-07T13:10:53;6.30;;;3.80;;
5638;SDS011;2841;44.526;11.360;2023-05-07T13:13:22;4.90;;;3.80;;
5638;SDS011;2841;44.526;11.360;2023-05-07T13:15:50;6.33;;;4.30;;
5638;SDS011;2841;44.526;11.360;2023-05-07T13:18:17;6.10;;;2.80;;
5638;SDS011;2841;44.526;11.360;2023-05-07T13:20:46;8.63;;;3.90;;
5638;SDS011;2841;44.526;11.360;2023-05-07T13:23:14;4.50;;;3.63;;
5638;SDS011;2841;44.526;11.360;2023-05-07T13:25:41;4.03;;;3.53;;
5638;SDS011;2841;44.526;11.360;2023-05-07T13:28:08;3.60;;;2.90;;
5638;SDS011;2841;44.526;11.360;2023-05-07T13:30:38;6.60;;;3.80;;
5638;SDS011;2841;44.526;11.360;2023-05-07T13:33:08;4.50;;;3.20;;
5638;SDS011;2841;44.526;11.360;2023-05-07T13:35:38;5.97;;;3.73;;
5638;SDS011;2841;44.526;11.360;2023-05-07T13:38:06;4.17;;;3.20;;
5638;SDS011;2841;44.526;11.360;2023-05-07T13:40:34;7.33;;;3.73;;
5638;SDS011;2841;44.526;11.360;2023-05-07T13:43:01;7.10;;;3.23;;
5638;SDS011;2841;44.526;11.360;2023-05-07T13:45:28;4.67;;;3.17;;
5638;SDS011;2841;44.526;11.360;2023-05-07T13:47:57;3.73;;;2.90;;
5638;SDS011;2841;44.526;11.360;2023-05-07T13:50:24;4.90;;;4.03;;
5638;SDS011;2841;44.526;11.360;2023-05-07T13:52:55;6.23;;;3.40;;
5638;SDS011;2841;44.526;11.360;2023-05-07T13:55:23;4.27;;;3.47;;
5638;SDS011;2841;44.526;11.360;2023-05-07T13:57:54;5.60;;;4.23;;
5638;SDS011;2841;44.526;11.360;2023-05-07T14:00:23;3.93;;;3.50;;
5638;SDS011;2841;44.526;11.360;2023-05-07T14:02:50;5.03;;;3.07;;
5638;SDS011;2841;44.526;11.360;2023-05-07T14:05:19;4.90;;;3.57;;
5638;SDS011;2841;44.526;11.360;2023-05-07T14:07:48;6.40;;;4.13;;
5638;SDS011;2841;44.526;11.360;2023-05-07T14:10:16;7.77;;;3.27;;
5638;SDS011;2841;44.526;11.360;2023-05-07T14:12:44;5.20;;;3.67;;
5638;SDS011;2841;44.526;11.360;2023-05-07T14:15:11;4.73;;;3.10;;
5638;SDS011;2841;44.526;11.360;2023-05-07T14:17:39;5.90;;;3.87;;
5638;SDS011;2841;44.526;11.360;2023-05-07T14:20:06;5.03;;;3.17;;
5638;SDS011;2841;44.526;11.360;2023-05-07T14:22:37;4.87;;;3.07;;
5638;SDS011;2841;44.526;11.360;2023-05-07T14:25:04;4.20;;;2.80;;
5638;SDS011;2841;44.526;11.360;2023-05-07T14:27:34;10.13;;;3.50;;
5638;SDS011;2841;44.526;11.360;2023-05-07T14:30:01;3.87;;;3.20;;
5638;SDS011;2841;44.526;11.360;2023-05-07T14:32:29;6.77;;;4.20;;
5638;SDS011;2841;44.526;11.360;2023-05-07T14:34:56;6.00;;;3.23;;
5638;SDS011;2841;44.526;11.360;2023-05-07T14:37:23;5.30;;;3.63;;
5638;SDS011;2841;44.526;11.360;2023-05-07T14:39:52;4.70;;;3.03;;
5638;SDS011;2841;44.526;11.360;2023-05-07T14:42:19;4.17;;;3.23;;
5638;SDS011;2841;44.526;11.360;2023-05-07T14:44:46;4.27;;;3.07;;
5638;SDS011;2841;44.526;11.360;2023-05-07T14:47:13;5.20;;;3.00;;
5638;SDS011;2841;44.526;11.360;2023-05-07T14:49:41;6.53;;;3.50;;
5638;SDS011;2841;44.526;11.360;2023-05-07T14:52:08;3.07;;;2.77;;
5638;SDS011;2841;44.526;11.360;2023-05-07T14:54:36;5.17;;;2.97;;
5638;SDS011;2841;44.526;11.360;2023-05-07T14:57:06;10.63;;;4.17;;
5638;SDS011;2841;44.526;11.360;2023-05-07T14:59:35;4.57;;;3.30;;
5638;SDS011;2841;44.526;11.360;2023-05-07T15:02:02;5.57;;;4.00;;
5638;SDS011;2841;44.526;11.360;2023-05-07T15:04:30;7.03;;;4.53;;
5638;SDS011;2841;44.526;11.360;2023-05-07T15:06:58;5.70;;;4.10;;